createdAt,value
2019-05-13T00:00:16.043Z,5.94
2019-05-13T00:02:44.476Z,5.94
2019-05-13T00:05:14.626Z,5.91
2019-05-13T00:07:43.908Z,5.90
2019-05-13T00:10:14.783Z,5.99
2019-05-13T00:12:44.538Z,5.97
2019-05-13T00:15:14.219Z,5.89
2019-05-13T00:17:44.660Z,5.79
2019-05-13T00:20:14.136Z,5.78
2019-05-13T00:22:44.845Z,5.74
2019-05-13T00:25:14.633Z,5.70
2019-05-13T00:27:44.450Z,5.72
2019-05-13T00:30:14.463Z,5.67
2019-05-13T00:32:44.622Z,5.70
2019-05-13T00:35:14.208Z,5.67
2019-05-13T00:37:44.281Z,5.52
2019-05-13T00:40:14.407Z,5.51
2019-05-13T00:42:44.068Z,5.52
2019-05-13T00:45:14.618Z,5.44
2019-05-13T00:47:43.839Z,5.43
2019-05-13T00:50:14.338Z,5.42
2019-05-13T00:52:44.855Z,5.36
2019-05-13T00:55:14.817Z,5.39
2019-05-13T00:57:43.957Z,5.33
2019-05-13T01:00:14.254Z,5.31
2019-05-13T01:02:44.577Z,5.22
2019-05-13T01:05:14.741Z,5.22
2019-05-13T01:07:44.313Z,5.23
2019-05-13T01:10:13.855Z,5.21
2019-05-13T01:12:44.033Z,5.13
2019-05-13T01:15:13.549Z,5.11
2019-05-13T01:17:44.430Z,5.08
2019-05-13T01:20:14.387Z,5.00
2019-05-13T01:22:44.081Z,5.00
2019-05-13T01:25:14.457Z,4.93
2019-05-13T01:27:44.596Z,4.88
2019-05-13T01:30:14.158Z,4.89
2019-05-13T01:32:44.896Z,4.79
2019-05-13T01:35:14.920Z,4.80
2019-05-13T01:37:46.201Z,4.73
2019-05-13T01:40:14.124Z,4.75
2019-05-13T01:42:44.478Z,4.73
2019-05-13T01:45:14.137Z,4.67
2019-05-13T01:47:44.131Z,4.64
2019-05-13T01:50:14.319Z,4.62
2019-05-13T01:52:44.590Z,4.63
2019-05-13T01:55:14.541Z,4.59
2019-05-13T01:57:44.264Z,4.52
2019-05-13T02:00:14.381Z,4.42
2019-05-13T02:02:44.602Z,4.44
2019-05-13T02:05:13.994Z,4.38
2019-05-13T02:07:56.079Z,4.36
2019-05-13T02:10:15.298Z,4.14
2019-05-13T02:12:44.515Z,4.19
2019-05-13T02:15:14.716Z,4.22
2019-05-13T02:17:44.660Z,4.22
2019-05-13T02:20:14.712Z,4.21
2019-05-13T02:22:44.413Z,4.20
2019-05-13T02:25:13.909Z,4.21
2019-05-13T02:27:44.040Z,4.07
2019-05-13T02:30:15.953Z,3.88
2019-05-13T02:32:43.458Z,3.99
2019-05-13T02:35:13.874Z,3.92
2019-05-13T02:37:43.399Z,3.98
2019-05-13T02:40:13.471Z,3.98
2019-05-13T02:42:43.719Z,3.94
2019-05-13T02:45:12.843Z,3.94
2019-05-13T02:47:44.314Z,3.83
2019-05-13T02:50:12.979Z,3.72
2019-05-13T02:52:44.281Z,3.69
2019-05-13T02:55:12.591Z,3.81
2019-05-13T02:57:43.595Z,3.83
2019-05-13T03:00:13.145Z,3.82
2019-05-13T03:02:43.768Z,3.81
2019-05-13T03:05:13.974Z,3.78
2019-05-13T03:07:43.396Z,3.78
2019-05-13T03:10:14.098Z,3.72
2019-05-13T03:12:43.107Z,3.71
2019-05-13T03:15:13.541Z,3.63
2019-05-13T03:17:53.373Z,3.69
2019-05-13T03:20:22.899Z,3.62
2019-05-13T03:22:52.835Z,3.67
2019-05-13T03:25:22.758Z,3.59
2019-05-13T03:27:53.933Z,3.59
2019-05-13T03:30:25.309Z,3.54
2019-05-13T03:33:00.570Z,3.33
2019-05-13T03:35:26.470Z,3.41
2019-05-13T03:37:53.552Z,3.45
2019-05-13T03:40:23.122Z,3.48
2019-05-13T03:42:53.793Z,3.42
2019-05-13T03:45:24.797Z,3.46
2019-05-13T03:47:55.705Z,3.45
2019-05-13T03:50:24.185Z,3.47
2019-05-13T03:52:52.862Z,3.47
2019-05-13T03:55:23.244Z,3.48
2019-05-13T03:57:53.291Z,3.49
2019-05-13T04:00:23.590Z,3.47
2019-05-13T04:02:53.132Z,3.48
2019-05-13T04:05:22.909Z,3.50
2019-05-13T04:07:52.488Z,3.54
2019-05-13T04:10:22.810Z,3.52
2019-05-13T04:12:52.856Z,3.50
2019-05-13T04:15:23.406Z,3.53
2019-05-13T04:17:53.257Z,3.56
2019-05-13T04:20:23.201Z,3.58
2019-05-13T04:22:53.585Z,3.61
2019-05-13T04:25:23.391Z,3.54
2019-05-13T04:27:53.434Z,3.65
2019-05-13T04:30:22.610Z,3.71
2019-05-13T04:32:53.376Z,3.79
2019-05-13T04:35:23.476Z,3.78
2019-05-13T04:37:53.087Z,3.82
2019-05-13T04:40:23.115Z,3.91
2019-05-13T04:42:53.381Z,3.96
2019-05-13T04:45:23.922Z,4.07
2019-05-13T04:47:53.016Z,4.09
2019-05-13T04:50:22.673Z,4.22
2019-05-13T04:52:52.963Z,4.22
2019-05-13T04:55:23.097Z,4.33
2019-05-13T04:57:53.452Z,4.37
2019-05-13T05:01:04.825Z,4.42
2019-05-13T05:03:48.011Z,4.47
2019-05-13T05:06:38.324Z,4.58
2019-05-13T05:09:15.556Z,4.65
2019-05-13T05:12:17.153Z,4.71
2019-05-13T05:15:18.765Z,4.73
2019-05-13T05:18:23.713Z,4.76
2019-05-13T05:21:13.382Z,4.87
2019-05-13T05:23:59.195Z,4.89
2019-05-13T05:26:33.167Z,4.95
2019-05-13T05:29:21.729Z,5.05
2019-05-13T05:32:05.080Z,5.05
2019-05-13T05:34:58.479Z,5.20
2019-05-13T05:37:46.236Z,5.25
2019-05-13T05:40:28.107Z,5.35
2019-05-13T05:42:47.024Z,5.41
2019-05-13T05:45:16.905Z,5.53
2019-05-13T05:47:46.783Z,5.64
2019-05-13T05:50:15.335Z,5.72
2019-05-13T05:52:43.848Z,5.82
2019-05-13T05:55:12.500Z,6.06
2019-05-13T05:57:44.287Z,7.00
2019-05-13T06:00:14.210Z,7.23
2019-05-13T06:02:45.917Z,7.76
2019-05-13T06:05:14.578Z,8.37
2019-05-13T06:07:43.112Z,8.56
2019-05-13T06:10:12.361Z,8.83
2019-05-13T06:12:42.446Z,9.49
2019-05-13T06:15:12.322Z,10.18
2019-05-13T06:17:41.440Z,10.29
2019-05-13T06:20:13.247Z,11.25
2019-05-13T06:22:42.393Z,10.98
2019-05-13T06:25:14.536Z,11.61
2019-05-13T06:27:42.231Z,11.74
2019-05-13T06:30:12.637Z,11.51
2019-05-13T06:32:41.893Z,11.37
2019-05-13T06:35:11.599Z,11.11
2019-05-13T06:37:41.431Z,11.59
2019-05-13T06:40:12.357Z,11.63
2019-05-13T06:42:41.706Z,12.01
2019-05-13T06:45:12.377Z,11.87
2019-05-13T06:47:41.310Z,11.54
2019-05-13T06:50:11.607Z,12.24
2019-05-13T06:52:42.497Z,12.66
2019-05-13T06:55:11.609Z,12.40
2019-05-13T06:57:42.213Z,12.36
2019-05-13T07:00:12.179Z,12.46
2019-05-13T07:02:42.725Z,12.53
2019-05-13T07:05:12.094Z,11.64
2019-05-13T07:07:42.395Z,11.23
2019-05-13T07:10:12.738Z,12.02
2019-05-13T07:12:41.541Z,11.94
2019-05-13T07:15:11.599Z,12.40
2019-05-13T07:17:41.588Z,13.16
2019-05-13T07:20:11.768Z,13.22
2019-05-13T07:22:42.165Z,13.12
2019-05-13T07:25:11.520Z,12.57
2019-05-13T07:27:42.419Z,13.17
2019-05-13T07:30:11.405Z,13.36
2019-05-13T07:32:42.079Z,12.64
2019-05-13T07:35:14.138Z,12.39
2019-05-13T07:37:42.477Z,12.87
2019-05-13T07:40:11.790Z,13.73
2019-05-13T07:42:41.964Z,14.00
2019-05-13T07:45:12.172Z,14.02
2019-05-13T07:47:41.955Z,13.36
2019-05-13T07:50:12.675Z,13.60
2019-05-13T07:52:42.268Z,13.67
2019-05-13T07:55:11.984Z,13.64
2019-05-13T07:57:42.306Z,13.21
2019-05-13T08:00:12.598Z,13.55
2019-05-13T08:02:41.836Z,13.71
2019-05-13T08:05:12.062Z,13.34
2019-05-13T08:07:42.236Z,13.62
2019-05-13T08:10:11.989Z,13.75
2019-05-13T08:12:41.280Z,13.86
2019-05-13T08:15:11.919Z,13.61
2019-05-13T08:17:46.720Z,13.75
2019-05-13T08:20:12.701Z,13.50
2019-05-13T08:22:42.453Z,12.95
2019-05-13T08:25:12.607Z,13.22
2019-05-13T08:27:42.129Z,12.97
2019-05-13T08:30:11.997Z,12.69
2019-05-13T08:32:41.964Z,12.66
2019-05-13T08:35:12.544Z,12.75
2019-05-13T08:37:41.468Z,12.30
2019-05-13T08:40:12.034Z,12.64
2019-05-13T08:42:41.530Z,12.65
2019-05-13T08:45:12.042Z,12.91
2019-05-13T08:47:41.975Z,13.05
2019-05-13T08:50:12.161Z,13.13
2019-05-13T08:52:42.280Z,13.00
2019-05-13T08:55:15.523Z,13.14
2019-05-13T08:57:42.023Z,13.07
2019-05-13T09:00:13.738Z,13.23
2019-05-13T09:02:42.199Z,13.53
2019-05-13T09:05:12.336Z,13.04
2019-05-13T09:07:41.329Z,13.31
2019-05-13T09:10:12.216Z,13.42
2019-05-13T09:12:43.104Z,13.58
2019-05-13T09:15:11.901Z,13.56
2019-05-13T09:17:42.495Z,13.40
2019-05-13T09:20:11.619Z,13.51
2019-05-13T09:22:41.270Z,13.58
2019-05-13T09:25:12.353Z,13.59
2019-05-13T09:27:42.588Z,13.55
2019-05-13T09:30:11.980Z,13.46
2019-05-13T09:32:42.596Z,13.62
2019-05-13T09:35:12.033Z,13.65
2019-05-13T09:37:42.335Z,13.82
2019-05-13T09:40:12.054Z,13.82
2019-05-13T09:42:49.047Z,13.91
2019-05-13T09:45:12.291Z,14.05
2019-05-13T09:47:41.741Z,14.20
2019-05-13T09:50:27.618Z,14.26
2019-05-13T09:52:42.809Z,14.07
2019-05-13T09:55:25.308Z,14.16
2019-05-13T09:57:41.667Z,14.25
2019-05-13T10:00:12.222Z,14.24
2019-05-13T10:02:42.626Z,14.23
2019-05-13T10:05:11.807Z,14.46
2019-05-13T10:07:42.482Z,14.49
2019-05-13T10:10:11.960Z,14.75
2019-05-13T10:12:42.551Z,14.46
2019-05-13T10:15:12.547Z,14.76
2019-05-13T10:17:42.692Z,14.90
2019-05-13T10:20:12.562Z,14.64
2019-05-13T10:22:41.809Z,14.56
2019-05-13T10:25:13.954Z,14.70
2019-05-13T10:27:42.598Z,14.98
2019-05-13T10:30:14.202Z,14.70
2019-05-13T10:32:42.819Z,14.53
2019-05-13T10:35:13.271Z,14.77
2019-05-13T10:37:42.184Z,14.42
2019-05-13T10:40:11.750Z,14.78
2019-05-13T10:42:43.142Z,14.71
2019-05-13T10:45:12.819Z,15.16
2019-05-13T10:47:42.365Z,14.69
2019-05-13T10:50:11.187Z,14.96
2019-05-13T10:52:42.540Z,15.04
2019-05-13T10:55:12.599Z,14.84
2019-05-13T10:57:42.372Z,15.07
2019-05-13T11:00:12.184Z,14.94
2019-05-13T11:02:42.418Z,14.29
2019-05-13T11:05:12.321Z,14.65
2019-05-13T11:07:42.138Z,14.78
2019-05-13T11:10:13.270Z,15.21
2019-05-13T11:12:41.924Z,15.60
2019-05-13T11:15:12.010Z,15.88
2019-05-13T11:17:42.687Z,15.41
2019-05-13T11:20:12.438Z,15.18
2019-05-13T11:22:41.158Z,15.09
2019-05-13T11:25:12.338Z,15.44
2019-05-13T11:27:42.178Z,15.25
2019-05-13T11:30:11.133Z,14.94
2019-05-13T11:32:42.356Z,15.00
2019-05-13T11:35:12.893Z,15.37
2019-05-13T11:37:39.932Z,15.23
2019-05-13T11:40:11.960Z,15.27
2019-05-13T11:42:42.184Z,15.22
2019-05-13T11:45:11.670Z,15.46
2019-05-13T11:47:41.499Z,15.63
2019-05-13T11:50:11.691Z,15.57
2019-05-13T11:52:42.424Z,15.26
2019-05-13T11:55:12.985Z,15.21
2019-05-13T11:57:44.339Z,15.20
2019-05-13T12:00:13.684Z,15.22
2019-05-13T12:02:43.531Z,14.97
2019-05-13T12:05:12.639Z,15.09
2019-05-13T12:07:42.054Z,14.84
2019-05-13T12:10:12.513Z,14.96
2019-05-13T12:12:43.892Z,14.98
2019-05-13T12:15:42.465Z,15.15
2019-05-13T12:17:42.952Z,15.38
2019-05-13T12:20:13.601Z,15.40
2019-05-13T12:22:42.784Z,15.28
2019-05-13T12:25:13.809Z,14.99
2019-05-13T12:27:42.077Z,14.87
2019-05-13T12:30:12.485Z,14.89
2019-05-13T12:32:43.739Z,15.06
2019-05-13T12:35:13.336Z,15.40
2019-05-13T12:37:42.139Z,15.64
2019-05-13T12:40:11.060Z,15.93
2019-05-13T12:42:44.353Z,16.02
2019-05-13T12:45:13.915Z,15.64
2019-05-13T12:47:43.356Z,15.85
2019-05-13T12:50:13.642Z,16.11
2019-05-13T12:52:43.751Z,16.08
2019-05-13T12:57:41.986Z,16.42
2019-05-13T13:00:13.165Z,16.15
2019-05-13T13:02:49.171Z,15.93
2019-05-13T13:05:19.549Z,15.65
2019-05-13T13:07:42.699Z,15.43
2019-05-13T13:10:14.704Z,15.49
2019-05-13T13:12:42.262Z,15.68
2019-05-13T13:15:35.475Z,15.62
2019-05-13T13:17:41.550Z,15.25
2019-05-13T13:20:15.116Z,15.63
2019-05-13T13:22:41.807Z,15.72
2019-05-13T13:25:13.219Z,15.77
2019-05-13T13:28:03.157Z,15.45
2019-05-13T13:30:12.283Z,15.76
2019-05-13T13:32:45.364Z,15.62
2019-05-13T13:35:14.612Z,15.52
2019-05-13T13:37:46.039Z,15.58
2019-05-13T13:40:11.821Z,15.72
2019-05-13T13:42:43.083Z,15.94
2019-05-13T13:45:10.816Z,16.00
2019-05-13T13:47:39.298Z,16.00
2019-05-13T13:50:11.178Z,16.12
2019-05-13T13:52:39.333Z,16.12
2019-05-13T13:55:09.110Z,16.06
2019-05-13T13:57:38.057Z,16.06
2019-05-13T14:00:31.712Z,15.87
2019-05-13T14:02:38.203Z,16.10
2019-05-13T14:05:07.114Z,16.27
2019-05-13T14:06:35.507Z,16.44
2019-05-13T14:07:38.654Z,16.23
2019-05-13T14:10:07.447Z,16.57
2019-05-13T14:12:35.858Z,16.51
2019-05-13T14:15:05.823Z,16.38
2019-05-13T14:17:34.314Z,16.26
2019-05-13T14:20:02.738Z,16.43
2019-05-13T14:22:32.264Z,16.39
2019-05-13T14:25:01.090Z,16.47
2019-05-13T14:27:31.468Z,16.24
2019-05-13T14:30:01.354Z,16.21
2019-05-13T14:32:32.079Z,16.08
2019-05-13T14:35:02.222Z,16.13
2019-05-13T14:37:31.825Z,16.35
2019-05-13T14:40:02.486Z,16.16
2019-05-13T14:42:32.150Z,16.26
2019-05-13T14:45:01.939Z,16.31
2019-05-13T14:47:32.117Z,16.19
2019-05-13T14:50:02.101Z,16.21
2019-05-13T14:52:32.316Z,15.98
2019-05-13T14:55:02.206Z,16.08
2019-05-13T14:57:32.227Z,16.21
2019-05-13T15:00:02.419Z,16.12
2019-05-13T15:02:32.108Z,15.99
2019-05-13T15:05:02.680Z,16.06
2019-05-13T15:07:32.248Z,16.05
2019-05-13T15:10:02.437Z,16.11
2019-05-13T15:12:32.324Z,16.04
2019-05-13T15:15:01.636Z,15.90
2019-05-13T15:17:32.491Z,16.04
2019-05-13T15:20:01.864Z,15.93
2019-05-13T15:22:31.835Z,15.84
2019-05-13T15:25:02.761Z,15.98
2019-05-13T15:27:31.680Z,16.07
2019-05-13T15:30:14.454Z,16.04
2019-05-13T15:32:32.542Z,15.99
2019-05-13T15:35:02.119Z,15.95
2019-05-13T15:37:32.163Z,15.87
2019-05-13T15:40:02.289Z,15.87
2019-05-13T15:42:31.876Z,15.94
2019-05-13T15:45:02.099Z,15.82
2019-05-13T15:47:31.052Z,15.73
2019-05-13T15:50:02.424Z,15.76
2019-05-13T15:52:31.835Z,15.84
2019-05-13T15:55:01.571Z,15.77
2019-05-13T15:57:32.102Z,15.74
2019-05-13T16:00:01.971Z,15.75
2019-05-13T16:02:31.417Z,15.74
2019-05-13T16:05:02.091Z,15.72
2019-05-13T16:07:30.417Z,15.63
2019-05-13T16:09:58.833Z,15.66
2019-05-13T16:12:27.348Z,15.72
2019-05-13T16:14:55.923Z,15.69
2019-05-13T16:17:37.927Z,15.69
2019-05-13T16:19:54.570Z,15.69
2019-05-13T16:22:23.219Z,15.62
2019-05-13T16:24:52.411Z,15.53
2019-05-13T16:27:21.679Z,15.45
2019-05-13T16:29:51.661Z,15.49
2019-05-13T16:32:22.739Z,15.31
2019-05-13T16:34:51.841Z,15.30
2019-05-13T16:37:21.978Z,15.30
2019-05-13T16:39:52.052Z,15.34
2019-05-13T16:42:22.514Z,15.29
2019-05-13T16:44:51.803Z,15.29
2019-05-13T16:47:21.281Z,15.36
2019-05-13T16:49:49.735Z,15.32
2019-05-13T16:52:18.160Z,15.36
2019-05-13T16:54:46.651Z,15.27
2019-05-13T16:57:15.210Z,15.20
2019-05-13T16:59:43.642Z,15.23
2019-05-13T17:02:12.769Z,15.20
2019-05-13T17:04:41.536Z,15.05
2019-05-13T17:07:13.205Z,15.00
2019-05-13T17:09:41.731Z,15.00
2019-05-13T17:12:13.859Z,14.88
2019-05-13T17:14:41.577Z,14.86
2019-05-13T17:17:11.962Z,14.86
2019-05-13T17:19:42.271Z,14.85
2019-05-13T17:22:10.986Z,14.75
2019-05-13T17:24:39.445Z,14.77
2019-05-13T17:27:07.859Z,14.73
2019-05-13T17:29:36.272Z,14.69
2019-05-13T17:32:04.851Z,14.64
2019-05-13T17:34:33.275Z,14.58
2019-05-13T17:37:02.784Z,14.52
2019-05-13T17:39:32.135Z,14.47
2019-05-13T17:42:01.486Z,14.43
2019-05-13T17:44:31.763Z,14.38
2019-05-13T17:47:01.758Z,14.36
2019-05-13T17:49:31.865Z,14.25
2019-05-13T17:52:02.462Z,14.27
2019-05-13T17:54:31.824Z,14.21
2019-05-13T17:57:01.818Z,14.17
2019-05-13T17:59:31.482Z,14.09
2019-05-13T18:02:02.665Z,14.08
2019-05-13T18:04:31.410Z,13.99
2019-05-13T18:07:01.678Z,14.00
2019-05-13T18:09:31.828Z,13.85
2019-05-13T18:12:02.479Z,13.74
2019-05-13T18:14:30.720Z,13.75
2019-05-13T18:17:01.348Z,13.72
2019-05-13T18:19:31.490Z,13.68
2019-05-13T18:22:01.952Z,13.66
2019-05-13T18:24:31.830Z,13.55
2019-05-13T18:27:01.296Z,13.52
2019-05-13T18:29:31.667Z,13.44
2019-05-13T18:32:02.012Z,13.42
2019-05-13T18:34:32.138Z,13.36
2019-05-13T18:37:02.469Z,13.31
2019-05-13T18:39:32.247Z,13.25
2019-05-13T18:42:01.135Z,13.22
2019-05-13T18:44:31.476Z,13.18
2019-05-13T18:47:01.580Z,13.06
2019-05-13T18:49:31.795Z,13.00
2019-05-13T18:52:00.202Z,12.97
2019-05-13T18:54:28.656Z,12.89
2019-05-13T18:56:57.080Z,12.82
2019-05-13T18:59:25.556Z,12.81
2019-05-13T19:01:54.025Z,12.78
2019-05-13T19:04:22.425Z,12.74
2019-05-13T19:06:51.640Z,12.58
2019-05-13T19:09:21.713Z,12.55
2019-05-13T19:11:51.601Z,12.53
2019-05-13T19:14:21.230Z,12.48
2019-05-13T19:16:49.891Z,12.42
2019-05-13T19:19:20.691Z,12.30
2019-05-13T19:21:48.538Z,12.28
2019-05-13T19:24:16.993Z,12.23
2019-05-13T19:26:45.473Z,12.13
2019-05-13T19:29:13.897Z,12.09
2019-05-13T19:31:42.409Z,11.98
2019-05-13T19:34:12.588Z,11.94
2019-05-13T19:36:41.156Z,11.93
2019-05-13T19:39:11.462Z,11.78
2019-05-13T19:41:42.049Z,11.75
2019-05-13T19:44:10.095Z,11.72
2019-05-13T19:46:38.512Z,11.67
2019-05-13T19:49:06.982Z,11.61
2019-05-13T19:51:35.534Z,11.61
2019-05-13T19:54:03.959Z,11.50
2019-05-13T19:56:32.411Z,11.46
2019-05-13T19:59:01.532Z,11.39
2019-05-13T20:01:32.201Z,11.31
2019-05-13T20:04:02.329Z,11.25
2019-05-13T20:06:31.966Z,11.26
2019-05-13T20:09:01.474Z,11.24
2019-05-13T20:11:30.087Z,11.15
2019-05-13T20:13:58.513Z,11.13
2019-05-13T20:16:26.940Z,11.05
2019-05-13T20:18:55.350Z,11.02
2019-05-13T20:21:24.072Z,10.99
2019-05-13T20:23:52.490Z,10.87
2019-05-13T20:26:22.717Z,10.84
2019-05-13T20:28:51.365Z,10.75
2019-05-13T20:31:21.717Z,10.76
2019-05-13T20:33:51.545Z,10.69
2019-05-13T20:36:22.178Z,10.70
2019-05-13T20:38:51.595Z,10.62
2019-05-13T20:41:22.396Z,10.63
2019-05-13T20:43:52.040Z,10.49
2019-05-13T20:46:22.979Z,10.55
2019-05-13T20:48:51.943Z,10.43
2019-05-13T20:51:21.973Z,10.40
2019-05-13T20:53:51.817Z,10.37
2019-05-13T20:56:21.384Z,10.34
2019-05-13T20:58:51.524Z,10.27
2019-05-13T21:01:20.157Z,10.13
2019-05-13T21:03:51.330Z,10.15
2019-05-13T21:06:18.837Z,10.12
2019-05-13T21:08:47.353Z,10.06
2019-05-13T21:11:15.764Z,10.01
2019-05-13T21:13:44.174Z,9.93
2019-05-13T21:16:14.166Z,9.93
2019-05-13T21:18:42.701Z,9.91
2019-05-13T21:21:11.782Z,9.89
2019-05-13T21:23:41.770Z,9.85
2019-05-13T21:26:14.721Z,9.78
2019-05-13T21:28:41.904Z,9.74
2019-05-13T21:31:11.355Z,9.67
2019-05-13T21:33:40.151Z,9.62
2019-05-13T21:36:08.533Z,9.62
2019-05-13T21:38:36.952Z,9.47
2019-05-13T21:41:05.371Z,9.52
2019-05-13T21:43:33.770Z,9.48
2019-05-13T21:46:02.412Z,9.53
2019-05-13T21:48:32.479Z,9.46
2019-05-13T21:51:01.183Z,9.34
2019-05-13T21:53:32.351Z,9.32
2019-05-13T21:56:02.123Z,9.30
2019-05-13T21:58:31.287Z,9.30
2019-05-13T22:01:01.700Z,9.19
2019-05-13T22:03:33.170Z,9.23
2019-05-13T22:06:01.914Z,9.20
2019-05-13T22:08:32.108Z,9.12
2019-05-13T22:11:01.774Z,9.10
2019-05-13T22:13:31.616Z,9.06
2019-05-13T22:16:01.733Z,9.08
2019-05-13T22:18:31.317Z,8.98
2019-05-13T22:21:01.310Z,8.96
2019-05-13T22:23:32.034Z,8.92
2019-05-13T22:26:01.632Z,8.94
2019-05-13T22:28:31.296Z,9.00
2019-05-13T22:31:01.310Z,9.01
2019-05-13T22:33:32.171Z,8.98
2019-05-13T22:36:01.592Z,8.98
2019-05-13T22:38:32.290Z,8.96
2019-05-13T22:41:01.232Z,8.79
2019-05-13T22:43:31.987Z,8.74
2019-05-13T22:46:00.936Z,8.78
2019-05-13T22:48:31.541Z,8.76
2019-05-13T22:51:01.386Z,8.74
2019-05-13T22:53:31.918Z,8.67
2019-05-13T22:55:59.873Z,8.62
2019-05-13T22:58:28.363Z,8.62
2019-05-13T23:00:56.800Z,8.59
2019-05-13T23:03:25.205Z,8.50
2019-05-13T23:05:53.635Z,8.42
2019-05-13T23:08:22.060Z,8.27
2019-05-13T23:10:51.508Z,8.30
2019-05-13T23:13:20.157Z,8.35
2019-05-13T23:15:56.201Z,8.25
2019-05-13T23:18:24.549Z,8.15
2019-05-13T23:20:53.003Z,8.12
2019-05-13T23:23:22.128Z,8.16
2019-05-13T23:25:51.042Z,8.15
2019-05-13T23:28:21.510Z,8.09
2019-05-13T23:30:51.178Z,8.06
2019-05-13T23:33:21.936Z,8.04
2019-05-13T23:35:50.083Z,8.01
2019-05-13T23:38:18.486Z,8.01
2019-05-13T23:40:46.919Z,7.93
2019-05-13T23:43:15.349Z,7.85
2019-05-13T23:45:43.748Z,7.84
2019-05-13T23:48:12.181Z,7.79
2019-05-13T23:50:41.503Z,7.78
2019-05-13T23:53:10.181Z,7.74
2019-05-13T23:55:38.612Z,7.66
2019-05-13T23:58:07.028Z,7.64
